Portada
METAR-TAF:

METAR-TAF

Aeroports :

Sligo, Irlanda

latitud: 54-16-49N, longitud: 8-35-57W, altitud: 3 m

Observació

L'informe es va fer fa 1 hora i 19 minuts, a les 19:00 UTC
Vent 7 kt del Nord-Oest
Temperatura 12°C
Humitat 82%
Pressió 1037 hPa
Visibilitat 10 km o més
sense núvols per sota de 1500 mi sense presència de cumulonimbus.

METAR: EISG 261900Z 31007KT CAVOK 12/09 Q1037

Hora: 21:19 (20:19 UTC)

Pronòstic

L'informe es va fer fa 3 hores i 19 minuts, a les 17:00 UTC
Pronòstic vàlid del 26 a les 18 UTC al 27 a les 03 UTC
Vent 7 kt del Nord/Nord-Oest
Visibilitat 10 km o més
Escasses núvols a una alçada de 3000 ft

TAF: EISG 261700Z 2618/2703 33007KT 9999 FEW030

Observacions i pronòstics meteorològics de més de 4000 aeroports (METAR i TAF).

Les estacions disponibles són els punts grocs i vermells al mapa.

Posi el ratolí al punt desitjat per veure el nom de l'estació.

Feu clic per veure les observacions i els pronòstics meteorològics.

Per canviar el mapa: feu clic els botons verds amb una creu de color negre per apropar; al botó verd amb un guió per allunyar la imatge; o en les fletxes verdes per a mapes adjacents.


METAR-TAF: